Time;durP1;ratioP1;P1;durP2;ratioP2;P2;SDS_P1;SDS_P2;PMS_P1;PMS_P2;Temp;Humidity;BMP_temperature;BMP_pressure;BME280_temperature;BME280_humidity;BME280_pressure;Samples;Min_cycle;Max_cycle;Signal;HPM_P1;HPM_P2
2021/12/17 00:00:28;;;;;;;53.70;35.60;;;;;;;6.24;100.00;103833.66;5255711;28;20055;-65
2021/12/17 00:08:17;;;;;;;57.50;36.15;;;;;;;6.32;100.00;103822.97;5259228;28;20131;-65
2021/12/17 00:10:51;;;;;;;63.00;37.90;;;;;;;6.32;100.00;103822.97;5261191;28;20080;-65
2021/12/17 00:13:22;;;;;;;54.22;36.20;;;;;;;6.34;100.00;103826.47;5264467;28;20081;-65
2021/12/17 00:15:54;;;;;;;59.58;37.40;;;;;;;6.33;100.00;103815.88;5262764;28;20120;-65
2021/12/17 00:18:34;;;;;;;58.08;36.90;;;;;;;6.33;100.00;103816.78;5267843;28;20404;-65
2021/12/17 00:49:25;;;;;;;53.60;34.25;;;;;;;6.54;100.00;103804.16;5247306;28;20701;-65
2021/12/17 00:52:02;;;;;;;61.13;35.72;;;;;;;6.65;100.00;103805.81;5262843;28;20033;-65
2021/12/17 00:54:40;;;;;;;52.13;34.40;;;;;;;6.63;100.00;103804.91;5261990;28;20505;-65
2021/12/17 00:57:18;;;;;;;52.47;34.95;;;;;;;6.65;100.00;103802.25;5258218;28;20036;-65
2021/12/17 00:59:53;;;;;;;54.67;34.05;;;;;;;6.73;100.00;103807.47;5262850;28;20070;-65
2021/12/17 01:02:31;;;;;;;53.55;34.67;;;;;;;6.68;100.00;103807.53;5262985;28;20094;-65
2021/12/17 01:05:07;;;;;;;54.35;34.83;;;;;;;6.70;100.00;103811.03;5265100;28;20470;-65
2021/12/17 01:07:41;;;;;;;51.15;32.55;;;;;;;6.65;100.00;103811.09;5266917;28;20134;-65
2021/12/17 01:10:21;;;;;;;52.78;34.28;;;;;;;6.70;100.00;103808.38;5259345;28;20043;-65
2021/12/17 01:12:52;;;;;;;52.75;33.67;;;;;;;6.66;100.00;103801.38;5262331;28;20035;-65
2021/12/17 01:15:25;;;;;;;52.22;33.28;;;;;;;6.69;100.00;103801.31;5261723;28;20032;-65
2021/12/17 01:18:02;;;;;;;57.40;35.60;;;;;;;6.68;100.00;103791.63;5268610;28;20036;-65
2021/12/17 01:36:33;;;;;;;55.92;33.88;;;;;;;6.76;100.00;103799.47;5261745;28;20044;-65
2021/12/17 01:42:06;;;;;;;62.97;35.95;;;;;;;6.80;100.00;103795.88;5262180;28;20457;-65
2021/12/17 01:44:39;;;;;;;58.70;36.03;;;;;;;6.76;100.00;103794.16;5266392;28;20070;-65
2021/12/17 01:47:11;;;;;;;54.38;33.60;;;;;;;6.76;100.00;103795.03;5254052;28;20020;-65
2021/12/17 02:00:56;;;;;;;56.30;34.25;;;;;;;6.78;100.00;103787.94;5248754;28;20609;-65
2021/12/17 02:03:27;;;;;;;55.67;31.98;;;;;;;6.85;100.00;103786.09;5255847;28;20052;-65
2021/12/17 02:06:00;;;;;;;59.15;32.92;;;;;;;6.95;100.00;103797.47;5257734;28;20037;-65
2021/12/17 02:08:33;;;;;;;58.95;34.58;;;;;;;6.85;100.00;103796.72;5267513;28;20725;-65
2021/12/17 02:19:47;;;;;;;67.13;36.58;;;;;;;6.83;100.00;103790.53;5260906;28;20033;-65
2021/12/17 02:23:09;;;;;;;61.90;34.97;;;;;;;6.80;100.00;103791.44;5259630;28;20032;-65
2021/12/17 02:31:26;;;;;;;62.13;35.20;;;;;;;6.82;100.00;103792.28;5274984;28;20036;-65
2021/12/17 02:34:09;;;;;;;60.88;33.58;;;;;;;6.86;100.00;103791.38;5267678;28;20332;-65
2021/12/17 02:36:43;;;;;;;62.22;35.33;;;;;;;6.79;100.00;103796.78;5268419;28;20033;-65
2021/12/17 02:47:26;;;;;;;55.67;32.22;;;;;;;6.84;100.00;103803.75;5256532;28;20032;-65
2021/12/17 02:49:58;;;;;;;66.05;34.67;;;;;;;6.93;100.00;103792.16;5257415;28;21411;-65
2021/12/17 02:52:30;;;;;;;61.17;34.35;;;;;;;6.86;100.00;103794.03;5270562;28;20046;-65
2021/12/17 02:55:06;;;;;;;61.55;34.00;;;;;;;6.85;100.00;103794.91;5263392;28;20068;-65
2021/12/17 02:57:37;;;;;;;69.18;35.20;;;;;;;6.85;100.00;103792.25;5268403;28;20036;-65
2021/12/17 03:00:09;;;;;;;80.70;36.47;;;;;;;6.91;100.00;103793.97;5261835;28;20386;-65
2021/12/17 03:02:43;;;;;;;73.78;35.33;;;;;;;6.92;100.00;103792.19;5255191;28;20036;-65
2021/12/17 03:05:15;;;;;;;85.22;37.55;;;;;;;6.99;100.00;103789.41;5266266;28;20121;-65
2021/12/17 03:07:48;;;;;;;83.90;37.80;;;;;;;7.07;100.00;103792.84;5263273;28;20128;-65
2021/12/17 03:10:19;;;;;;;89.57;39.67;;;;;;;7.00;100.00;103798.25;5268832;28;21474;-65
2021/12/17 03:12:56;;;;;;;87.00;38.47;;;;;;;7.04;100.00;103795.56;5262493;28;20125;-65
2021/12/17 03:18:39;;;;;;;93.65;39.55;;;;;;;7.06;100.00;103799.06;5265204;28;20438;-65
2021/12/17 03:23:49;;;;;;;94.88;39.00;;;;;;;7.07;100.00;103805.25;5254683;28;20040;-65
2021/12/17 03:26:28;;;;;;;89.20;38.00;;;;;;;7.18;100.00;103807.75;5253498;28;20037;-65
2021/12/17 03:29:04;;;;;;;97.28;39.15;;;;;;;7.14;100.00;103811.34;5256874;28;20032;-65
2021/12/17 03:31:36;;;;;;;94.28;38.60;;;;;;;7.18;100.00;103805.97;5254787;28;20064;-65
2021/12/17 03:34:19;;;;;;;92.95;38.83;;;;;;;7.14;100.00;103806.91;5254419;28;20060;-65
2021/12/17 03:36:56;;;;;;;105.82;39.00;;;;;;;7.13;100.00;103802.50;5250509;28;20034;-65
2021/12/17 03:39:30;;;;;;;122.85;41.78;;;;;;;7.08;100.00;103804.34;5254751;28;20501;-65
2021/12/17 03:42:03;;;;;;;106.60;39.47;;;;;;;7.18;100.00;103798.00;5253204;28;20044;-65
2021/12/17 03:44:35;;;;;;;112.40;40.58;;;;;;;7.16;100.00;103802.47;5252269;28;20070;-65
2021/12/17 03:47:06;;;;;;;108.68;37.30;;;;;;;7.23;100.00;103809.44;5252342;28;20029;-65
2021/12/17 03:49:40;;;;;;;114.90;40.13;;;;;;;7.16;100.00;103805.13;5255127;28;20519;-65
2021/12/17 03:52:13;;;;;;;114.93;40.55;;;;;;;7.18;100.00;103803.31;5258774;28;20035;-65
2021/12/17 03:54:45;;;;;;;115.88;38.78;;;;;;;7.22;100.00;103799.72;5258106;28;20034;-65
2021/12/17 03:57:18;;;;;;;123.07;40.00;;;;;;;7.23;100.00;103801.47;5255410;28;20032;-65
2021/12/17 03:59:50;;;;;;;127.32;41.90;;;;;;;7.12;100.00;103799.88;5261567;28;20059;-65
2021/12/17 04:02:21;;;;;;;125.93;40.83;;;;;;;7.21;100.00;103802.38;5258097;28;20503;-65
2021/12/17 04:04:53;;;;;;;133.55;42.05;;;;;;;7.17;100.00;103804.22;5257324;28;20039;-65
2021/12/17 04:07:24;;;;;;;131.35;40.80;;;;;;;7.14;100.00;103801.59;5253867;28;20044;-65
2021/12/17 04:09:55;;;;;;;136.50;40.88;;;;;;;7.15;100.00;103799.81;5257829;28;20475;-65
2021/12/17 04:12:45;;;;;;;140.25;41.00;;;;;;;7.11;100.00;103793.66;5259376;28;20119;-65
2021/12/17 04:15:16;;;;;;;132.32;38.90;;;;;;;7.18;100.00;103794.47;5257114;28;20052;-65
2021/12/17 04:17:54;;;;;;;142.43;44.17;;;;;;;7.13;100.00;103794.53;5260992;28;20060;-65
2021/12/17 04:20:26;;;;;;;139.13;42.40;;;;;;;7.20;100.00;103793.53;5256171;28;20047;-65
2021/12/17 04:22:57;;;;;;;133.15;40.92;;;;;;;7.18;100.00;103798.00;5258532;28;20496;-65
2021/12/17 04:25:29;;;;;;;137.30;42.55;;;;;;;7.17;100.00;103795.34;5276533;28;20029;-65
2021/12/17 04:28:00;;;;;;;141.02;43.20;;;;;;;7.20;100.00;103796.19;5253119;28;20521;-65
2021/12/17 04:30:32;;;;;;;143.05;42.85;;;;;;;7.13;100.00;103801.63;5258933;28;20641;-65
2021/12/17 04:33:03;;;;;;;142.27;44.22;;;;;;;7.14;100.00;103793.63;5256500;28;20100;-65
2021/12/17 04:35:35;;;;;;;156.50;46.72;;;;;;;7.11;100.00;103792.81;5257181;28;21488;-65
2021/12/17 04:38:08;;;;;;;140.57;43.35;;;;;;;7.23;100.00;103797.94;5257167;28;20036;-65
2021/12/17 04:40:43;;;;;;;156.13;46.08;;;;;;;7.15;100.00;103795.41;5258757;28;20017;-65
2021/12/17 04:43:29;;;;;;;150.15;43.60;;;;;;;7.14;100.00;103796.28;5259914;28;20107;-65
2021/12/17 04:46:44;;;;;;;151.43;44.72;;;;;;;7.16;100.00;103804.25;5261323;28;20405;-65
2021/12/17 04:57:29;;;;;;;166.32;46.90;;;;;;;7.16;100.00;103805.13;5257573;28;20032;-65
2021/12/17 05:00:14;;;;;;;184.30;49.10;;;;;;;7.12;100.00;103787.47;5253448;28;20121;-65
2021/12/17 05:02:50;;;;;;;162.18;47.55;;;;;;;7.16;100.00;103793.63;5253078;28;20026;-65
2021/12/17 05:05:29;;;;;;;168.55;47.20;;;;;;;7.10;100.00;103794.59;5260048;28;20108;-65
2021/12/17 05:08:07;;;;;;;173.88;46.60;;;;;;;7.07;100.00;103803.44;5250524;28;20637;-65
2021/12/17 05:11:02;;;;;;;157.52;46.85;;;;;;;7.18;100.00;103794.47;5257700;28;20028;-65
2021/12/17 05:21:49;;;;;;;162.38;46.15;;;;;;;7.14;100.00;103798.94;5262686;28;20033;-65
2021/12/17 05:24:21;;;;;;;141.55;41.72;;;;;;;7.17;100.00;103792.69;5265099;28;20500;-65
2021/12/17 05:26:52;;;;;;;141.43;41.45;;;;;;;7.21;100.00;103790.00;5263020;28;20367;-65
2021/12/17 05:29:23;;;;;;;140.77;40.53;;;;;;;7.18;100.00;103798.00;5268349;28;20055;-65
2021/12/17 05:31:54;;;;;;;159.13;41.38;;;;;;;7.12;100.00;103803.41;5260245;28;20071;-65
2021/12/17 05:34:26;;;;;;;170.57;42.58;;;;;;;7.10;100.00;103805.22;5264630;28;20373;-65
2021/12/17 05:36:57;;;;;;;146.55;42.25;;;;;;;7.20;100.00;103806.81;5264088;28;20372;-65
2021/12/17 05:39:28;;;;;;;159.13;44.00;;;;;;;7.14;100.00;103804.25;5268431;28;20033;-65
2021/12/17 05:42:00;;;;;;;151.05;43.83;;;;;;;7.19;100.00;103810.41;5264262;28;20024;-65
2021/12/17 05:44:31;;;;;;;173.40;44.53;;;;;;;7.17;100.00;103812.19;5265314;28;20123;-65
2021/12/17 05:47:03;;;;;;;153.80;43.90;;;;;;;7.23;100.00;103814.75;5262772;28;20021;-65
2021/12/17 05:49:34;;;;;;;170.93;45.28;;;;;;;7.16;100.00;103809.56;5261255;28;20509;-65
2021/12/17 05:52:06;;;;;;;176.32;45.33;;;;;;;7.14;100.00;103804.25;5257513;28;20029;-65
2021/12/17 05:54:37;;;;;;;173.18;43.30;;;;;;;7.15;100.00;103802.47;5264229;28;20037;-65
2021/12/17 05:57:08;;;;;;;169.40;46.42;;;;;;;7.18;100.00;103802.44;5264056;28;20060;-65
2021/12/17 05:59:40;;;;;;;176.57;47.55;;;;;;;7.21;100.00;103803.28;5262663;28;20395;-65
2021/12/17 06:02:13;;;;;;;178.48;50.22;;;;;;;7.23;100.00;103812.09;5256784;28;20041;-65
2021/12/17 06:04:45;;;;;;;199.13;51.92;;;;;;;7.17;100.00;103806.88;5254669;28;20028;-65
2021/12/17 06:07:27;;;;;;;185.68;48.38;;;;;;;7.20;100.00;103820.09;5256805;28;20484;-65
2021/12/17 06:10:02;;;;;;;162.73;47.63;;;;;;;7.27;100.00;103823.56;5258201;28;20568;-65
2021/12/17 06:12:33;;;;;;;;;;;;;;;7.31;100.00;103824.41;5258222;28;20029;-65
2021/12/17 06:15:07;;;;;;;176.98;44.33;;;;;;;7.23;100.00;103828.03;5261221;28;19923;-65
2021/12/17 06:17:39;;;;;;;;;;;;;;;7.30;100.00;103825.28;5267039;28;20770;-65
2021/12/17 06:20:12;;;;;;;126.03;33.50;;;;;;;7.18;100.00;103827.22;5274267;28;19916;-65
2021/12/17 06:22:43;;;;;;;144.85;36.63;;;;;;;7.13;100.00;103822.88;5259784;28;20501;-65
2021/12/17 06:25:15;;;;;;;127.78;35.17;;;;;;;7.17;100.00;103817.50;5266097;28;20033;-65
2021/12/17 06:27:46;;;;;;;132.18;33.85;;;;;;;7.15;100.00;103835.25;5268818;28;20036;-65
2021/12/17 06:30:20;;;;;;;127.95;33.60;;;;;;;7.16;100.00;103834.31;5259790;28;20115;-65
2021/12/17 06:32:52;;;;;;;143.95;37.58;;;;;;;7.11;100.00;103833.50;5270488;28;20032;-65
2021/12/17 06:35:24;;;;;;;144.40;35.95;;;;;;;7.09;100.00;103839.75;5266622;28;20027;-65
2021/12/17 06:37:55;;;;;;;108.13;31.02;;;;;;;7.17;100.00;103827.22;5262458;28;20400;-65
2021/12/17 06:40:26;;;;;;;117.10;32.22;;;;;;;7.18;100.00;103840.50;5277515;28;20029;-64
2021/12/17 06:42:58;;;;;;;149.82;33.85;;;;;;;7.08;100.00;103836.22;5268682;28;20032;-64
2021/12/17 06:48:23;;;;;;;130.73;32.13;;;;;;;7.10;100.00;103839.72;5261466;28;20574;-64
2021/12/17 06:59:38;;;;;;;101.88;28.65;;;;;;;7.12;100.00;103829.09;5264858;28;20040;-64
2021/12/17 07:10:44;;;;;;;111.38;29.13;;;;;;;7.03;100.00;103838.03;5262276;28;20533;-64
2021/12/17 07:22:19;;;;;;;101.75;24.90;;;;;;;7.07;100.00;103848.59;5272531;28;20032;-65
2021/12/17 07:35:44;;;;;;;106.53;24.05;;;;;;;7.05;100.00;103838.91;5270739;28;20497;-65
2021/12/17 07:41:08;;;;;;;85.45;23.63;;;;;;;7.12;100.00;103832.63;5271469;28;20037;-64
2021/12/17 07:43:40;;;;;;;96.38;25.17;;;;;;;7.03;100.00;103824.78;5270907;28;20036;-64
2021/12/17 07:46:12;;;;;;;81.90;24.35;;;;;;;7.13;100.00;103828.16;5271934;28;20106;-65
2021/12/17 07:48:43;;;;;;;96.70;24.23;;;;;;;7.03;100.00;103828.28;5272502;28;20047;-65
2021/12/17 07:51:17;;;;;;;89.75;23.65;;;;;;;7.09;100.00;103829.97;5273400;28;20024;-65
2021/12/17 07:53:49;;;;;;;93.80;24.80;;;;;;;7.07;100.00;103819.38;5272229;28;20035;-64
2021/12/17 07:56:24;;;;;;;112.38;25.33;;;;;;;7.05;100.00;103830.94;5271700;28;20029;-64
2021/12/17 07:58:55;;;;;;;90.85;22.67;;;;;;;7.06;100.00;103828.25;5271835;28;20038;-65
2021/12/17 08:01:26;;;;;;;71.93;22.50;;;;;;;7.16;100.00;103826.34;5273010;28;20020;-65
2021/12/17 08:03:57;;;;;;;102.57;26.80;;;;;;;7.03;100.00;103819.47;5273342;28;20040;-65
2021/12/17 08:06:29;;;;;;;98.47;25.63;;;;;;;7.01;100.00;103821.25;5270293;28;20052;-65
2021/12/17 08:09:01;;;;;;;79.38;23.25;;;;;;;7.10;100.00;103822.91;5269650;28;20375;-65
2021/12/17 08:11:39;;;;;;;83.95;23.92;;;;;;;7.13;100.00;103838.78;5267389;28;20028;-65
2021/12/17 08:14:16;;;;;;;91.00;24.00;;;;;;;7.10;100.00;103836.19;5268607;28;20075;-65
2021/12/17 08:17:07;;;;;;;112.80;26.48;;;;;;;7.04;100.00;103823.88;5266859;28;20032;-65
2021/12/17 08:25:19;;;;;;;85.05;31.38;;;;;;;7.03;100.00;103846.00;5267882;28;20048;-64
2021/12/17 08:28:03;;;;;;;98.60;33.95;;;;;;;6.99;100.00;103850.47;5270540;28;20036;-65
2021/12/17 08:30:39;;;;;;;88.30;34.03;;;;;;;7.01;100.00;103850.47;5272227;28;20401;-65
2021/12/17 08:33:10;;;;;;;116.45;37.75;;;;;;;6.93;100.00;103855.00;5269414;28;20017;-65
2021/12/17 08:35:41;;;;;;;83.55;32.40;;;;;;;7.00;100.00;103851.34;5271820;28;20028;-65
2021/12/17 08:38:13;;;;;;;103.75;36.83;;;;;;;6.94;100.00;103857.63;5273980;28;20051;-65
2021/12/17 08:40:44;;;;;;;107.85;35.80;;;;;;;6.95;100.00;103859.38;5274083;28;20020;-64
2021/12/17 08:43:16;;;;;;;98.88;35.97;;;;;;;6.95;100.00;103858.50;5267195;28;20029;-65
2021/12/17 08:45:47;;;;;;;91.20;34.20;;;;;;;6.94;100.00;103859.38;5273364;28;20032;-65
2021/12/17 08:48:18;;;;;;;92.30;33.55;;;;;;;6.92;100.00;103859.41;5264543;28;20032;-65
2021/12/17 08:50:49;;;;;;;84.30;33.97;;;;;;;6.94;100.00;103851.44;5268021;28;20157;-65
2021/12/17 08:53:21;;;;;;;95.05;34.92;;;;;;;6.92;100.00;103853.22;5273558;28;20055;-65
2021/12/17 08:55:52;;;;;;;79.50;32.50;;;;;;;7.00;100.00;103846.03;5270605;28;20024;-65
2021/12/17 08:58:23;;;;;;;79.82;32.72;;;;;;;6.98;100.00;103846.06;5273079;28;20408;-64
2021/12/17 09:00:55;;;;;;;74.18;30.67;;;;;;;7.09;100.00;103842.41;5272857;28;20016;-65
2021/12/17 09:03:26;;;;;;;73.68;31.38;;;;;;;7.09;100.00;103853.00;5270069;28;20364;-65
2021/12/17 09:05:57;;;;;;;90.35;33.72;;;;;;;7.04;100.00;103848.66;5269822;28;20135;-65
2021/12/17 09:08:29;;;;;;;73.70;29.95;;;;;;;7.11;100.00;103852.09;5271190;28;20461;-65
2021/12/17 09:11:01;;;;;;;92.75;34.65;;;;;;;7.02;100.00;103850.44;5272900;28;20373;-65
2021/12/17 09:13:32;;;;;;;88.70;32.65;;;;;;;7.02;100.00;103854.88;5270674;28;20410;-65
2021/12/17 09:16:06;;;;;;;84.82;31.63;;;;;;;7.07;100.00;103858.34;5271072;28;20032;-65
2021/12/17 09:18:38;;;;;;;89.03;32.30;;;;;;;7.06;100.00;103861.91;5273770;28;20036;-65
2021/12/17 09:21:09;;;;;;;89.28;33.05;;;;;;;7.03;100.00;103868.13;5265350;28;20082;-65
2021/12/17 09:23:41;;;;;;;88.47;32.95;;;;;;;7.11;100.00;103870.66;5271912;28;20059;-65
2021/12/17 09:26:14;;;;;;;81.30;31.38;;;;;;;7.15;100.00;103885.69;5271817;28;20830;-65
2021/12/17 09:28:45;;;;;;;84.78;33.25;;;;;;;7.09;100.00;103885.75;5265522;28;20070;-65
2021/12/17 09:31:17;;;;;;;96.85;34.63;;;;;;;7.06;100.00;103885.81;5272354;28;20028;-65
2021/12/17 09:33:50;;;;;;;78.35;30.83;;;;;;;7.12;100.00;103883.06;5271134;28;20086;-65
2021/12/17 09:36:22;;;;;;;97.00;33.15;;;;;;;7.10;100.00;103886.66;5274137;28;20051;-65
2021/12/17 09:38:53;;;;;;;87.90;30.80;;;;;;;7.16;100.00;103891.88;5271819;28;20530;-65
2021/12/17 09:41:26;;;;;;;90.90;33.33;;;;;;;7.18;100.00;103895.38;5273046;28;20025;-65
2021/12/17 09:43:57;;;;;;;78.28;30.77;;;;;;;7.18;100.00;103900.69;5272954;28;20128;-65
2021/12/17 09:46:29;;;;;;;88.28;32.33;;;;;;;7.17;100.00;103896.25;5271149;28;20020;-65
2021/12/17 09:49:00;;;;;;;82.97;30.63;;;;;;;7.24;100.00;103900.59;5271363;28;20028;-65
2021/12/17 09:51:32;;;;;;;91.75;32.50;;;;;;;7.20;100.00;103899.75;5270801;28;20541;-65
2021/12/17 09:54:04;;;;;;;80.63;31.35;;;;;;;7.25;100.00;103908.56;5274585;28;20024;-65
2021/12/17 09:56:35;;;;;;;83.50;31.33;;;;;;;7.29;100.00;103908.50;5264704;28;20063;-65
2021/12/17 09:59:07;;;;;;;97.32;33.28;;;;;;;7.20;100.00;103914.81;5267788;28;20099;-65
2021/12/17 10:01:41;;;;;;;82.85;30.83;;;;;;;7.25;100.00;103908.56;5263396;28;20032;-65
2021/12/17 10:04:28;;;;;;;96.75;32.13;;;;;;;7.31;100.00;103920.00;5261150;28;20026;-65
2021/12/17 10:07:18;;;;;;;90.45;32.88;;;;;;;7.25;100.00;103910.34;5273123;28;20053;-65
2021/12/17 10:09:53;;;;;;;92.60;33.08;;;;;;;7.19;100.00;103913.97;5273490;28;20978;-64
2021/12/17 10:12:33;;;;;;;85.97;31.70;;;;;;;7.25;100.00;103913.00;5271737;28;20032;-65
2021/12/17 10:15:12;;;;;;;93.68;32.50;;;;;;;7.26;100.00;103918.25;5267477;28;20028;-64
2021/12/17 10:18:02;;;;;;;99.05;33.60;;;;;;;7.28;100.00;103920.03;5264027;28;20371;-65
2021/12/17 10:20:54;;;;;;;94.15;33.13;;;;;;;7.32;100.00;103916.44;5269593;28;20024;-65
2021/12/17 10:23:29;;;;;;;86.25;31.48;;;;;;;7.34;100.00;103919.94;5271291;28;20046;-64
2021/12/17 10:26:00;;;;;;;94.38;32.72;;;;;;;7.32;100.00;103916.44;5271604;28;20063;-64
2021/12/17 10:28:32;;;;;;;91.63;33.22;;;;;;;7.34;100.00;103917.28;5266434;28;20024;-64
2021/12/17 10:31:09;;;;;;;78.35;30.42;;;;;;;7.41;100.00;103922.50;5269408;28;20050;-64
2021/12/17 10:33:48;;;;;;;87.95;32.42;;;;;;;7.32;100.00;103922.63;5270322;28;20016;-64
2021/12/17 10:36:41;;;;;;;90.15;32.45;;;;;;;7.36;100.00;103926.97;5269263;28;20028;-64
2021/12/17 10:39:24;;;;;;;92.05;31.25;;;;;;;7.41;100.00;103919.84;5268522;28;20020;-64
2021/12/17 10:41:56;;;;;;;73.72;27.20;;;;;;;7.42;100.00;103913.66;5272535;28;20478;-64
2021/12/17 10:44:27;;;;;;;84.80;29.17;;;;;;;7.44;100.00;103914.50;5269014;28;20024;-65
2021/12/17 10:47:17;;;;;;;89.40;29.02;;;;;;;7.44;100.00;103917.16;5272558;28;20035;-65
2021/12/17 10:49:57;;;;;;;79.50;28.05;;;;;;;7.49;100.00;103918.88;5271432;28;20025;-64
2021/12/17 10:52:41;;;;;;;75.32;25.77;;;;;;;7.52;100.00;103916.19;5272466;28;20119;-64
2021/12/17 10:55:14;;;;;;;67.18;22.85;;;;;;;7.56;100.00;103924.06;5272594;28;20052;-64
2021/12/17 10:57:48;;;;;;;74.20;22.75;;;;;;;7.53;100.00;103920.56;5272213;28;20549;-65
2021/12/17 11:00:20;;;;;;;59.75;20.48;;;;;;;7.59;100.00;103925.78;5270793;28;20028;-64
2021/12/17 11:02:53;;;;;;;63.15;19.13;;;;;;;7.59;100.00;103926.69;5272866;28;20047;-64
2021/12/17 11:05:24;;;;;;;54.97;18.40;;;;;;;7.62;100.00;103916.00;5267309;28;20024;-64
2021/12/17 11:07:55;;;;;;;56.90;18.55;;;;;;;7.70;100.00;103920.34;5270805;28;20053;-65
2021/12/17 11:10:31;;;;;;;48.33;15.82;;;;;;;7.76;100.00;103928.22;5273633;28;20040;-64
2021/12/17 11:13:03;;;;;;;55.03;16.70;;;;;;;7.72;100.00;103926.50;5272283;28;20047;-64
2021/12/17 11:15:34;;;;;;;54.05;16.60;;;;;;;7.77;100.00;103914.03;5270277;28;20016;-64
2021/12/17 11:18:06;;;;;;;52.20;18.10;;;;;;;7.78;100.00;103921.97;5271067;28;20107;-64
2021/12/17 11:20:39;;;;;;;58.30;18.60;;;;;;;7.75;100.00;103919.38;5270504;28;20127;-65
2021/12/17 11:23:14;;;;;;;56.57;18.57;;;;;;;7.78;100.00;103913.13;5265632;28;20028;-65
2021/12/17 11:25:48;;;;;;;59.20;18.10;;;;;;;7.79;100.00;103923.72;5267802;28;20644;-64
2021/12/17 11:28:21;;;;;;;57.95;17.45;;;;;;;7.84;100.00;103915.66;5266510;28;20106;-64
2021/12/17 11:30:53;;;;;;;54.75;18.55;;;;;;;7.82;100.00;103906.84;5266861;28;20020;-64
2021/12/17 11:33:25;;;;;;;47.55;17.40;;;;;;;7.82;100.00;103901.53;5265017;28;20374;-64
2021/12/17 11:35:56;;;;;;;50.72;17.35;;;;;;;7.78;100.00;103903.34;5267634;28;20032;-64
2021/12/17 11:39:16;;;;;;;46.28;16.95;;;;;;;7.80;100.00;103900.69;5271259;28;20032;-64
2021/12/17 11:42:28;;;;;;;54.28;18.48;;;;;;;7.80;100.00;103895.38;5248202;28;20477;-64
2021/12/17 11:48:09;;;;;;;52.78;17.83;;;;;;;7.90;100.00;103883.69;5267774;28;20268;-65
2021/12/17 11:50:41;;;;;;;57.88;17.85;;;;;;;7.88;100.00;103880.19;5271499;28;20040;-65
2021/12/17 11:53:19;;;;;;;58.03;18.58;;;;;;;7.91;100.00;103879.25;5273244;28;20162;-64
2021/12/17 11:55:57;;;;;;;53.45;18.52;;;;;;;7.92;100.00;103887.22;5269225;28;20416;-64
2021/12/17 11:58:47;;;;;;;43.92;17.25;;;;;;;7.97;100.00;103874.69;5272140;28;20035;-65
2021/12/17 12:01:50;;;;;;;47.55;17.67;;;;;;;8.02;100.00;103875.50;5270403;28;20056;-64
2021/12/17 12:04:33;;;;;;;39.53;15.65;;;;;;;8.04;100.00;103876.34;5269036;28;20028;-64
2021/12/17 12:07:15;;;;;;;46.47;17.45;;;;;;;7.98;100.00;103868.50;5266285;28;20138;-64
2021/12/17 12:09:57;;;;;;;43.40;17.10;;;;;;;7.94;100.00;103868.56;5269711;28;20049;-64
2021/12/17 12:12:29;;;;;;;43.25;17.70;;;;;;;7.94;100.00;103876.53;5273333;28;20036;-64
2021/12/17 12:15:27;;;;;;;36.10;15.45;;;;;;;7.96;100.00;103886.25;5274474;28;20058;-65
2021/12/17 12:18:06;;;;;;;36.08;16.42;;;;;;;7.97;100.00;103881.81;5269892;28;20070;-64
2021/12/17 12:20:47;;;;;;;38.60;16.13;;;;;;;7.94;100.00;103890.72;5266692;28;20032;-64
2021/12/17 12:23:27;;;;;;;33.95;14.90;;;;;;;7.92;100.00;103883.66;5272979;28;20993;-65
2021/12/17 12:26:05;;;;;;;40.70;18.05;;;;;;;7.93;100.00;103886.28;5269760;28;20044;-65
2021/12/17 12:28:45;;;;;;;37.42;17.45;;;;;;;7.96;100.00;103890.69;5269840;28;20060;-65
2021/12/17 12:31:16;;;;;;;38.25;17.70;;;;;;;7.92;100.00;103892.53;5276344;28;20040;-64
2021/12/17 12:34:06;;;;;;;37.55;17.92;;;;;;;7.93;100.00;103882.75;5275009;28;20044;-64
2021/12/17 12:36:58;;;;;;;42.60;18.17;;;;;;;7.91;100.00;103885.44;5276553;28;20040;-65
2021/12/17 12:40:03;;;;;;;39.08;17.92;;;;;;;7.93;100.00;103878.31;5272145;28;20033;-65
2021/12/17 12:42:36;;;;;;;39.97;17.60;;;;;;;7.91;100.00;103879.25;5273928;28;20066;-65
2021/12/17 12:45:12;;;;;;;35.80;15.95;;;;;;;7.91;100.00;103873.94;5267459;28;20033;-65
2021/12/17 12:47:55;;;;;;;38.00;17.25;;;;;;;7.92;100.00;103865.94;5271437;28;20082;-65
2021/12/17 12:50:28;;;;;;;37.70;17.40;;;;;;;7.89;100.00;103863.31;5274789;28;20078;-64
2021/12/17 12:53:05;;;;;;;36.00;16.40;;;;;;;7.92;100.00;103875.66;5272893;28;20040;-65
2021/12/17 12:55:43;;;;;;;34.00;16.50;;;;;;;7.96;100.00;103872.97;5274972;28;20167;-65
2021/12/17 12:58:18;;;;;;;30.92;14.45;;;;;;;7.98;100.00;103873.81;5270062;28;20033;-64
2021/12/17 13:00:57;;;;;;;27.85;13.70;;;;;;;7.86;100.00;103868.69;5272905;28;20052;-64
2021/12/17 13:03:34;;;;;;;28.08;13.15;;;;;;;7.95;100.00;103867.66;5273777;28;20032;-64
2021/12/17 13:06:06;;;;;;;28.42;13.23;;;;;;;7.94;100.00;103873.88;5273607;28;20039;-64
2021/12/17 13:08:37;;;;;;;22.58;11.88;;;;;;;7.91;100.00;103863.31;5272674;28;20081;-64
2021/12/17 13:11:09;;;;;;;19.40;10.23;;;;;;;7.83;100.00;103866.97;5274446;28;20036;-64
2021/12/17 13:13:50;;;;;;;20.85;10.52;;;;;;;7.80;100.00;103874.09;5276594;28;20025;-64
2021/12/17 13:16:41;;;;;;;23.05;11.30;;;;;;;7.75;100.00;103879.50;5275473;28;20029;-64
2021/12/17 13:22:24;;;;;;;25.38;12.75;;;;;;;7.77;100.00;103872.38;5268483;28;20090;-65
2021/12/17 13:24:53;;;;;;;22.58;11.70;;;;;;;7.79;100.00;103869.69;5273322;28;20040;-64
2021/12/17 13:27:25;;;;;;;26.08;11.65;;;;;;;7.73;100.00;103873.34;5273507;28;20024;-64
2021/12/17 13:29:57;;;;;;;22.17;11.38;;;;;;;7.70;100.00;103870.72;5269784;28;20451;-64
2021/12/17 13:32:29;;;;;;;23.70;11.93;;;;;;;7.68;100.00;103872.50;5265326;28;20173;-64
2021/12/17 13:35:00;;;;;;;23.23;12.65;;;;;;;7.65;100.00;103867.25;5270754;28;20028;-64
2021/12/17 13:37:34;;;;;;;23.67;12.55;;;;;;;7.64;100.00;103866.38;5274910;28;20028;-64
2021/12/17 13:40:09;;;;;;;21.20;10.90;;;;;;;7.58;100.00;103871.78;5275059;28;20029;-64
2021/12/17 13:42:42;;;;;;;;;;;;;;;7.72;100.00;103868.03;5273441;28;20040;-64
2021/12/17 13:45:20;;;;;;;23.33;11.75;;;;;;;7.62;100.00;103865.53;5272834;28;19913;-64
2021/12/17 13:47:54;;;;;;;22.08;12.38;;;;;;;7.66;100.00;103861.91;5270123;28;20032;-64
2021/12/17 13:50:28;;;;;;;25.00;12.95;;;;;;;7.65;100.00;103861.91;5274434;28;20123;-64
2021/12/17 13:53:03;;;;;;;11.48;7.50;;;;;;;7.60;100.00;103854.03;5269586;28;20067;-64
2021/12/17 13:55:41;;;;;;;13.57;6.75;;;;;;;7.58;100.00;103865.59;5275376;28;20028;-64
2021/12/17 13:58:20;;;;;;;10.18;6.60;;;;;;;7.60;100.00;103871.75;5272409;28;20115;-63
2021/12/17 14:00:55;;;;;;;13.10;6.60;;;;;;;7.56;100.00;103870.94;5270984;28;20044;-64
2021/12/17 14:03:32;;;;;;;11.65;7.03;;;;;;;7.58;100.00;103874.44;5271894;28;20033;-64
2021/12/17 14:06:17;;;;;;;9.93;6.55;;;;;;;7.60;100.00;103869.09;5267515;28;20056;-64
2021/12/17 14:08:48;;;;;;;10.25;6.40;;;;;;;7.60;100.00;103866.44;5271955;28;20513;-64
2021/12/17 14:11:24;;;;;;;9.30;6.15;;;;;;;7.54;100.00;103870.06;5268902;28;20032;-64
2021/12/17 14:13:56;;;;;;;8.13;5.07;;;;;;;7.52;100.00;103871.00;5266843;28;20046;-64
2021/12/17 14:16:33;;;;;;;7.90;4.68;;;;;;;7.54;100.00;103870.06;5267328;28;20329;-64
2021/12/17 14:19:04;;;;;;;8.65;4.75;;;;;;;7.51;100.00;103867.47;5271920;28;20029;-64
2021/12/17 14:21:36;;;;;;;8.68;5.15;;;;;;;7.53;100.00;103868.31;5269012;28;20035;-64
2021/12/17 14:24:07;;;;;;;10.38;5.38;;;;;;;7.46;100.00;103866.66;5266660;28;20116;-64
2021/12/17 14:26:39;;;;;;;8.10;4.97;;;;;;;7.49;100.00;103874.56;5268930;28;20082;-64
2021/12/17 14:29:11;;;;;;;8.45;5.32;;;;;;;7.45;100.00;103879.03;5270430;28;20036;-64